createdAt,value
2018-05-23T00:01:12.305Z,61.80
2018-05-23T00:03:40.172Z,62.10
2018-05-23T00:06:07.788Z,61.50
2018-05-23T00:08:36.315Z,61.60
2018-05-23T00:11:04.120Z,61.60
2018-05-23T00:13:31.769Z,61.90
2018-05-23T00:15:59.390Z,61.80
2018-05-23T00:18:27.279Z,61.70
2018-05-23T00:20:55.040Z,62.20
2018-05-23T00:23:22.701Z,62.10
2018-05-23T00:25:50.359Z,62.40
2018-05-23T00:28:18.127Z,62.40
2018-05-23T00:30:45.998Z,62.40
2018-05-23T00:33:13.762Z,62.50
2018-05-23T00:35:41.549Z,63.00
2018-05-23T00:38:09.206Z,63.00
2018-05-23T00:40:36.949Z,63.00
2018-05-23T00:43:04.751Z,63.00
2018-05-23T00:45:32.391Z,62.60
2018-05-23T00:48:00.029Z,63.60
2018-05-23T00:50:27.747Z,62.50
2018-05-23T00:52:56.183Z,63.20
2018-05-23T00:55:33.734Z,63.10
2018-05-23T00:58:02.364Z,63.80
2018-05-23T01:00:29.980Z,63.70
2018-05-23T01:02:58.382Z,63.50
2018-05-23T01:05:26.095Z,63.50
2018-05-23T01:07:54.344Z,63.20
2018-05-23T01:12:49.805Z,64.00
2018-05-23T01:15:17.457Z,64.10
2018-05-23T01:17:45.200Z,64.40
2018-05-23T01:20:12.848Z,64.60
2018-05-23T01:22:40.461Z,64.60
2018-05-23T01:25:08.127Z,64.80
2018-05-23T01:27:36.521Z,66.10
2018-05-23T01:30:04.901Z,65.50
2018-05-23T01:32:33.425Z,65.40
2018-05-23T01:35:01.189Z,65.40
2018-05-23T01:37:28.873Z,65.40
2018-05-23T01:39:56.489Z,65.90
2018-05-23T01:42:24.123Z,66.10
2018-05-23T01:44:52.589Z,65.90
2018-05-23T01:47:20.224Z,65.90
2018-05-23T01:49:47.832Z,66.00
2018-05-23T01:52:16.363Z,66.80
2018-05-23T01:54:44.126Z,66.70
2018-05-23T01:57:11.765Z,66.40
2018-05-23T01:59:39.553Z,66.40
2018-05-23T02:02:07.320Z,66.40
2018-05-23T02:04:35.013Z,66.00
2018-05-23T02:07:04.283Z,66.50
2018-05-23T02:09:31.975Z,66.40
2018-05-23T02:11:59.813Z,66.80
2018-05-23T02:14:27.440Z,66.40
2018-05-23T02:16:55.100Z,66.40
2018-05-23T02:19:23.620Z,66.00
2018-05-23T02:21:51.384Z,66.00
2018-05-23T02:24:19.023Z,65.70
2018-05-23T02:26:46.732Z,66.00
2018-05-23T02:29:16.008Z,67.10
2018-05-23T02:31:43.626Z,67.10
2018-05-23T02:34:12.156Z,66.20
2018-05-23T02:36:39.828Z,66.10
2018-05-23T02:39:07.479Z,66.10
2018-05-23T02:41:35.242Z,66.00
2018-05-23T02:44:03.005Z,66.00
2018-05-23T02:46:30.874Z,66.30
2018-05-23T02:48:58.638Z,66.10
2018-05-23T02:51:26.506Z,68.60
2018-05-23T02:53:54.320Z,71.70
2018-05-23T02:56:22.709Z,77.50
2018-05-23T02:58:51.096Z,79.90
2018-05-23T03:01:18.738Z,79.90
2018-05-23T03:03:47.170Z,81.30
2018-05-23T03:06:14.936Z,81.30
2018-05-23T03:08:42.561Z,81.90
2018-05-23T03:11:10.981Z,81.50
2018-05-23T03:13:38.598Z,81.40
2018-05-23T03:16:07.134Z,82.40
2018-05-23T03:18:34.759Z,82.30
2018-05-23T03:21:02.451Z,82.60
2018-05-23T03:23:30.048Z,83.80
2018-05-23T03:25:58.504Z,84.60
2018-05-23T03:28:26.161Z,83.60
2018-05-23T03:30:53.771Z,83.60
2018-05-23T03:33:22.214Z,84.10
2018-05-23T03:35:49.893Z,84.00
2018-05-23T03:38:18.439Z,83.20
2018-05-23T03:40:46.206Z,83.80
2018-05-23T03:43:13.895Z,84.10
2018-05-23T03:45:41.734Z,85.90
2018-05-23T03:48:09.353Z,85.60
2018-05-23T03:50:37.771Z,83.90
2018-05-23T03:53:05.389Z,83.90
2018-05-23T03:55:33.816Z,85.20
2018-05-23T03:58:01.431Z,85.20
2018-05-23T04:00:41.777Z,84.70
2018-05-23T04:03:21.418Z,84.70
2018-05-23T04:06:01.231Z,85.30
2018-05-23T04:08:29.099Z,84.40
2018-05-23T04:10:56.766Z,85.20
2018-05-23T04:13:24.553Z,84.90
2018-05-23T04:15:52.221Z,85.90
2018-05-23T04:18:19.909Z,85.90
2018-05-23T04:20:47.716Z,87.40
2018-05-23T04:23:15.392Z,85.00
2018-05-23T04:25:43.019Z,86.00
2018-05-23T04:28:10.654Z,86.70
2018-05-23T04:30:39.093Z,85.90
2018-05-23T04:33:06.787Z,85.80
2018-05-23T04:35:35.264Z,85.30
2018-05-23T04:38:03.817Z,85.10
2018-05-23T04:40:31.508Z,85.00
2018-05-23T04:42:59.269Z,85.30
2018-05-23T04:45:26.935Z,84.80
2018-05-23T04:47:55.368Z,84.90
2018-05-23T04:50:23.256Z,84.80
2018-05-23T04:52:50.911Z,84.70
2018-05-23T04:55:19.393Z,84.20
2018-05-23T04:57:47.018Z,84.30
2018-05-23T05:00:14.823Z,83.60
2018-05-23T05:02:42.690Z,82.80
2018-05-23T05:05:10.451Z,80.60
2018-05-23T05:07:38.220Z,79.80
2018-05-23T05:10:05.871Z,80.20
2018-05-23T05:12:33.545Z,80.40
2018-05-23T05:15:01.422Z,79.10
2018-05-23T05:17:29.990Z,76.40
2018-05-23T05:19:57.691Z,76.40
2018-05-23T05:22:25.451Z,78.10
2018-05-23T05:24:53.107Z,77.10
2018-05-23T05:27:20.728Z,76.50
2018-05-23T05:29:48.381Z,77.00
2018-05-23T05:32:16.101Z,76.20
2018-05-23T05:34:43.902Z,77.90
2018-05-23T05:37:11.592Z,78.10
2018-05-23T05:39:39.236Z,78.40
2018-05-23T05:42:06.891Z,76.90
2018-05-23T05:44:34.687Z,77.70
2018-05-23T05:47:02.353Z,76.90
2018-05-23T05:49:30.010Z,77.00
2018-05-23T05:51:57.805Z,75.30
2018-05-23T05:54:25.646Z,75.80
2018-05-23T05:56:53.457Z,76.60
2018-05-23T05:59:21.871Z,75.30
2018-05-23T06:01:49.530Z,75.30
2018-05-23T06:04:17.251Z,75.40
2018-05-23T06:06:44.869Z,75.90
2018-05-23T06:09:12.533Z,76.00
2018-05-23T06:11:40.178Z,75.00
2018-05-23T06:14:07.967Z,72.20
2018-05-23T06:16:35.635Z,72.40
2018-05-23T06:19:03.410Z,71.60
2018-05-23T06:21:31.033Z,70.30
2018-05-23T06:23:58.754Z,70.60
2018-05-23T06:26:27.251Z,70.80
2018-05-23T06:28:55.629Z,70.20
2018-05-23T06:31:24.017Z,70.00
2018-05-23T06:33:52.518Z,71.40
2018-05-23T06:36:20.205Z,71.30
2018-05-23T06:38:47.866Z,69.90
2018-05-23T06:41:15.488Z,70.10
2018-05-23T06:43:44.025Z,68.70
2018-05-23T06:46:12.499Z,69.50
2018-05-23T06:48:40.285Z,69.40
2018-05-23T06:51:08.126Z,69.50
2018-05-23T06:53:35.924Z,70.30
2018-05-23T06:56:03.599Z,69.90
2018-05-23T06:58:31.977Z,70.50
2018-05-23T07:01:00.518Z,70.20
2018-05-23T07:03:28.161Z,69.40
2018-05-23T07:05:55.904Z,70.50
2018-05-23T07:08:24.296Z,69.40
2018-05-23T07:10:52.052Z,69.40
2018-05-23T07:13:19.851Z,69.30
2018-05-23T07:15:47.545Z,69.70
2018-05-23T07:18:15.229Z,69.10
2018-05-23T07:20:43.761Z,65.20
2018-05-23T07:23:11.731Z,65.30
2018-05-23T07:25:39.385Z,65.20
2018-05-23T07:28:07.160Z,65.50
2018-05-23T07:30:35.029Z,65.50
2018-05-23T07:33:05.132Z,66.30
2018-05-23T07:35:33.025Z,64.40
2018-05-23T07:38:00.879Z,64.40
2018-05-23T07:40:29.297Z,62.20
2018-05-23T07:42:57.709Z,62.70
2018-05-23T07:45:25.432Z,62.60
2018-05-23T07:47:53.223Z,62.40
2018-05-23T07:50:21.668Z,59.70
2018-05-23T07:52:49.345Z,59.70
2018-05-23T07:55:17.113Z,59.50
2018-05-23T07:57:45.522Z,58.50
2018-05-23T08:00:13.163Z,58.50
2018-05-23T08:02:41.597Z,58.90
2018-05-23T08:05:09.218Z,58.40
2018-05-23T08:07:37.777Z,58.70
2018-05-23T08:10:06.327Z,58.60
2018-05-23T08:12:34.014Z,58.60
2018-05-23T08:15:02.729Z,57.80
2018-05-23T08:17:30.541Z,57.80
2018-05-23T08:19:58.210Z,57.60
2018-05-23T08:22:25.866Z,57.50
2018-05-23T08:24:53.598Z,58.10
2018-05-23T08:27:21.340Z,58.00
2018-05-23T08:29:50.983Z,56.80
2018-05-23T08:32:18.766Z,56.80
2018-05-23T08:34:48.474Z,56.80
2018-05-23T08:37:16.181Z,57.10
2018-05-23T08:39:44.732Z,57.50
2018-05-23T08:42:12.502Z,57.50
2018-05-23T08:44:44.377Z,57.80
2018-05-23T08:47:12.934Z,56.70
2018-05-23T08:49:40.807Z,56.70
2018-05-23T08:52:08.578Z,57.50
2018-05-23T08:54:36.335Z,57.40
2018-05-23T08:57:03.976Z,57.20
2018-05-23T08:59:31.764Z,56.40
2018-05-23T09:01:59.455Z,56.90
2018-05-23T09:04:27.287Z,56.60
2018-05-23T09:06:54.961Z,56.10
2018-05-23T09:09:22.643Z,56.70
2018-05-23T09:11:51.612Z,57.50
2018-05-23T09:14:19.485Z,56.70
2018-05-23T09:16:47.166Z,56.90
2018-05-23T09:19:14.791Z,56.70
2018-05-23T09:21:42.502Z,56.00
2018-05-23T09:24:11.047Z,55.50
2018-05-23T09:26:38.810Z,55.40
2018-05-23T09:29:06.568Z,55.60
2018-05-23T09:31:34.187Z,55.80
2018-05-23T09:34:01.836Z,55.30
2018-05-23T09:36:29.666Z,54.60
2018-05-23T09:38:57.430Z,54.30
2018-05-23T09:41:25.228Z,54.60
2018-05-23T09:43:52.956Z,55.20
2018-05-23T09:46:20.720Z,53.90
2018-05-23T09:48:48.410Z,53.90
2018-05-23T09:51:16.153Z,54.10
2018-05-23T09:53:44.019Z,54.50
2018-05-23T09:56:11.784Z,54.10
2018-05-23T09:58:39.672Z,53.90
2018-05-23T10:01:07.522Z,53.70
2018-05-23T10:03:35.127Z,53.90
2018-05-23T10:06:03.686Z,54.20
2018-05-23T10:08:31.452Z,54.20
2018-05-23T10:10:59.101Z,53.30
2018-05-23T10:13:26.886Z,53.40
2018-05-23T10:15:55.305Z,53.00
2018-05-23T10:18:23.025Z,53.30
2018-05-23T10:20:50.863Z,53.70
2018-05-23T10:23:18.632Z,53.60
2018-05-23T10:25:46.294Z,53.40
2018-05-23T10:28:13.943Z,53.20
2018-05-23T10:30:41.720Z,53.60
2018-05-23T10:33:09.626Z,53.90
2018-05-23T10:35:37.381Z,53.50
2018-05-23T10:38:04.996Z,53.90
2018-05-23T10:40:32.637Z,54.40
2018-05-23T10:43:00.256Z,54.10
2018-05-23T10:45:28.820Z,54.50
2018-05-23T10:47:56.686Z,54.60
2018-05-23T10:50:24.353Z,55.00
2018-05-23T10:52:51.972Z,54.70
2018-05-23T10:55:19.597Z,54.30
2018-05-23T10:57:47.336Z,53.80
2018-05-23T11:00:15.031Z,54.20
2018-05-23T11:02:42.644Z,54.00
2018-05-23T11:05:10.325Z,53.90
2018-05-23T11:07:38.090Z,54.10
2018-05-23T11:10:05.758Z,54.00
2018-05-23T11:12:33.388Z,54.20
2018-05-23T11:15:01.092Z,54.50
2018-05-23T11:17:29.761Z,55.30
2018-05-23T11:19:57.417Z,55.30
2018-05-23T11:22:25.189Z,55.00
2018-05-23T11:24:52.827Z,54.90
2018-05-23T11:27:20.623Z,55.60
2018-05-23T11:29:48.447Z,55.90
2018-05-23T11:32:16.265Z,56.20
2018-05-23T11:34:43.937Z,56.30
2018-05-23T11:37:11.781Z,56.10
2018-05-23T11:39:39.660Z,56.40
2018-05-23T11:42:07.438Z,56.90
2018-05-23T11:44:35.103Z,57.00
2018-05-23T11:47:02.857Z,56.90
2018-05-23T11:49:30.702Z,57.70
2018-05-23T11:51:58.570Z,58.90
2018-05-23T11:54:26.335Z,60.60
2018-05-23T11:56:53.961Z,62.20
2018-05-23T11:59:21.659Z,63.10
2018-05-23T12:01:49.341Z,63.60
2018-05-23T12:04:16.965Z,64.20
2018-05-23T12:06:44.853Z,63.90
2018-05-23T12:09:12.750Z,63.80
2018-05-23T12:11:41.331Z,65.30
2018-05-23T12:14:10.026Z,64.40
2018-05-23T12:16:39.517Z,64.00
2018-05-23T12:19:08.794Z,64.70
2018-05-23T12:21:39.530Z,64.60
2018-05-23T12:24:07.240Z,65.10
2018-05-23T12:26:36.813Z,66.40
2018-05-23T12:29:04.565Z,65.80
2018-05-23T12:31:32.502Z,65.70
2018-05-23T12:34:00.425Z,64.50
2018-05-23T12:36:28.472Z,64.70
2018-05-23T12:38:56.172Z,64.50
2018-05-23T12:41:24.005Z,65.20
2018-05-23T12:43:51.619Z,65.80
2018-05-23T12:46:20.247Z,64.20
2018-05-23T12:48:49.632Z,64.10
2018-05-23T12:51:17.618Z,63.30
2018-05-23T12:53:45.309Z,62.80
2018-05-23T12:56:14.624Z,63.10
2018-05-23T12:58:42.272Z,62.40
2018-05-23T13:01:09.904Z,61.50
2018-05-23T13:03:37.697Z,61.00
2018-05-23T13:06:06.110Z,59.70
2018-05-23T13:08:34.504Z,59.20
2018-05-23T13:11:02.153Z,59.20
2018-05-23T13:13:30.610Z,59.90
2018-05-23T13:15:58.276Z,59.80
2018-05-23T13:18:25.902Z,59.10
2018-05-23T13:20:53.665Z,59.00
2018-05-23T13:23:21.916Z,58.90
2018-05-23T13:25:49.717Z,58.80
2018-05-23T13:28:17.498Z,59.10
2018-05-23T13:30:45.232Z,59.00
2018-05-23T13:33:13.123Z,59.30
2018-05-23T13:35:40.797Z,59.10
2018-05-23T13:38:08.441Z,59.80
2018-05-23T13:40:36.296Z,58.80
2018-05-23T13:43:04.063Z,58.70
2018-05-23T13:45:31.927Z,58.60
2018-05-23T13:47:59.610Z,58.90
2018-05-23T13:50:27.301Z,58.30
2018-05-23T13:52:55.763Z,57.50
2018-05-23T13:55:24.153Z,57.80
2018-05-23T13:57:51.981Z,57.70
2018-05-23T14:00:19.636Z,57.90
2018-05-23T14:02:47.408Z,58.50
2018-05-23T14:05:15.064Z,58.00
2018-05-23T14:07:42.775Z,57.40
2018-05-23T14:10:11.170Z,58.00
2018-05-23T14:12:39.598Z,57.70
2018-05-23T14:15:07.289Z,57.70
2018-05-23T14:17:36.658Z,57.40
2018-05-23T14:20:04.563Z,57.30
2018-05-23T14:22:32.322Z,57.00
2018-05-23T14:25:00.158Z,56.90
2018-05-23T14:27:27.921Z,56.80
2018-05-23T14:29:55.900Z,56.70
2018-05-23T14:32:23.620Z,56.60
2018-05-23T14:34:51.251Z,56.30
2018-05-23T14:37:19.009Z,56.40
2018-05-23T14:39:46.888Z,56.70
2018-05-23T14:42:15.538Z,56.80
2018-05-23T14:44:43.184Z,56.70
2018-05-23T14:47:10.889Z,56.80
2018-05-23T14:49:38.700Z,55.90
2018-05-23T14:52:06.497Z,56.00
2018-05-23T14:54:34.256Z,56.00
2018-05-23T14:57:01.866Z,54.90
2018-05-23T14:59:30.325Z,55.60
2018-05-23T15:01:58.063Z,55.60
2018-05-23T15:04:25.707Z,54.70
2018-05-23T15:06:53.488Z,54.40
2018-05-23T15:09:21.256Z,54.10
2018-05-23T15:11:48.930Z,53.60
2018-05-23T15:14:16.727Z,53.20
2018-05-23T15:16:44.361Z,53.50
2018-05-23T15:19:12.213Z,52.70
2018-05-23T15:21:39.914Z,52.40
2018-05-23T15:24:08.334Z,51.00
2018-05-23T15:26:36.100Z,51.00
2018-05-23T15:29:04.714Z,51.00
2018-05-23T15:31:32.717Z,51.00
2018-05-23T15:34:01.020Z,50.80
2018-05-23T15:36:28.719Z,50.80
2018-05-23T15:38:56.410Z,51.00
2018-05-23T15:41:26.827Z,50.80
2018-05-23T15:43:54.677Z,49.60
2018-05-23T15:46:26.240Z,49.70
2018-05-23T15:48:54.021Z,49.50
2018-05-23T15:51:23.231Z,49.80
2018-05-23T15:53:53.258Z,50.20
2018-05-23T15:56:20.947Z,50.10
2018-05-23T15:58:48.593Z,50.80
2018-05-23T16:01:17.019Z,50.10
2018-05-23T16:03:44.783Z,50.10
2018-05-23T16:06:12.592Z,49.10
2018-05-23T16:08:41.164Z,48.50
2018-05-23T16:11:09.740Z,48.90
2018-05-23T16:13:37.402Z,48.90
2018-05-23T16:16:05.242Z,49.20
2018-05-23T16:18:32.865Z,48.80
2018-05-23T16:21:02.930Z,49.10
2018-05-23T16:23:30.786Z,49.10
2018-05-23T16:25:58.598Z,48.70
2018-05-23T16:28:27.139Z,49.50
2018-05-23T16:30:55.934Z,49.50
2018-05-23T16:33:23.618Z,50.00
2018-05-23T16:35:51.235Z,50.20
2018-05-23T16:38:18.944Z,50.60
2018-05-23T16:40:46.633Z,51.10
2018-05-23T16:43:15.031Z,51.60
2018-05-23T16:45:42.749Z,51.60
2018-05-23T16:48:10.500Z,51.60
2018-05-23T16:50:38.117Z,51.80
2018-05-23T16:53:05.850Z,51.90
2018-05-23T16:55:34.293Z,52.40
2018-05-23T16:58:02.139Z,52.40
2018-05-23T17:00:30.161Z,52.70
2018-05-23T17:02:58.590Z,53.00
2018-05-23T17:05:26.301Z,53.30
2018-05-23T17:08:00.759Z,53.30
2018-05-23T17:10:28.562Z,53.50
2018-05-23T17:12:56.490Z,53.50
2018-05-23T17:15:27.776Z,53.60
2018-05-23T17:17:55.846Z,54.00
2018-05-23T17:20:24.496Z,54.20
2018-05-23T17:22:52.254Z,54.40
2018-05-23T17:25:20.747Z,54.50
2018-05-23T17:27:49.665Z,54.60
2018-05-23T17:30:17.864Z,55.10
2018-05-23T17:32:45.924Z,55.30
2018-05-23T17:35:13.848Z,56.30
2018-05-23T17:37:44.248Z,55.90
2018-05-23T17:40:15.154Z,56.10
2018-05-23T17:42:43.201Z,56.00
2018-05-23T17:45:12.119Z,56.30
2018-05-23T17:47:42.493Z,56.40
2018-05-23T17:50:10.668Z,56.90
2018-05-23T17:52:41.084Z,57.50
2018-05-23T17:55:09.004Z,57.50
2018-05-23T17:57:39.422Z,57.80
2018-05-23T18:00:12.073Z,58.10
2018-05-23T18:02:41.643Z,58.60
2018-05-23T18:05:10.789Z,58.60
2018-05-23T18:07:39.102Z,58.90
2018-05-23T18:10:07.862Z,59.00
2018-05-23T18:12:36.276Z,59.40
2018-05-23T18:15:08.226Z,59.80
2018-05-23T18:17:36.020Z,59.80
2018-05-23T18:20:06.643Z,60.20
2018-05-23T18:22:36.227Z,60.30
2018-05-23T18:25:05.541Z,60.10
2018-05-23T18:27:33.464Z,60.30
2018-05-23T18:30:01.369Z,60.40
2018-05-23T18:32:29.145Z,60.80
2018-05-23T18:34:58.333Z,60.60
2018-05-23T18:37:26.162Z,60.50
2018-05-23T18:39:54.072Z,60.90
2018-05-23T18:42:23.900Z,61.30
2018-05-23T18:44:52.588Z,61.00
2018-05-23T18:47:20.536Z,61.00
2018-05-23T18:49:48.399Z,60.90
2018-05-23T18:52:16.267Z,60.90
2018-05-23T18:54:44.140Z,61.00
2018-05-23T18:57:12.445Z,61.30
2018-05-23T18:59:40.246Z,60.70
2018-05-23T19:02:08.246Z,61.80
2018-05-23T19:04:36.237Z,61.00
2018-05-23T19:07:05.224Z,61.60
2018-05-23T19:09:32.893Z,61.60
2018-05-23T19:12:01.622Z,62.20
2018-05-23T19:14:29.535Z,62.20
2018-05-23T19:16:58.418Z,62.10
2018-05-23T19:19:27.622Z,62.30
2018-05-23T19:21:55.698Z,62.10
2018-05-23T19:24:25.117Z,62.40
2018-05-23T19:26:52.961Z,62.30
2018-05-23T19:29:21.381Z,62.20
2018-05-23T19:31:49.212Z,62.30
2018-05-23T19:34:16.923Z,63.00
2018-05-23T19:36:44.639Z,62.90
2018-05-23T19:39:16.427Z,63.10
2018-05-23T19:41:46.840Z,63.40
2018-05-23T19:44:14.923Z,63.40
2018-05-23T19:46:43.435Z,63.30
2018-05-23T19:49:12.181Z,63.40
2018-05-23T19:51:41.241Z,63.30
2018-05-23T19:54:09.128Z,63.40
2018-05-23T19:56:36.918Z,63.50
2018-05-23T19:59:04.762Z,63.10
2018-05-23T20:01:32.434Z,63.20
2018-05-23T20:04:02.560Z,63.10
2018-05-23T20:06:30.976Z,63.40
2018-05-23T20:08:59.611Z,62.70
2018-05-23T20:11:38.885Z,62.60
2018-05-23T20:14:07.295Z,62.50
2018-05-23T20:19:12.480Z,62.00
2018-05-23T20:21:40.168Z,62.70
2018-05-23T20:24:07.910Z,62.30
2018-05-23T20:26:35.559Z,62.00
2018-05-23T20:29:03.267Z,61.20
2018-05-23T20:31:30.905Z,61.80
2018-05-23T20:33:58.658Z,61.30
2018-05-23T20:36:26.292Z,60.00
2018-05-23T20:38:54.127Z,59.20
2018-05-23T20:41:22.565Z,58.60
2018-05-23T20:43:50.357Z,58.60
2018-05-23T20:46:18.041Z,58.10
2018-05-23T20:48:46.579Z,57.10
2018-05-23T20:51:14.250Z,56.90
2018-05-23T20:53:41.921Z,56.90
2018-05-23T20:56:09.671Z,56.90
2018-05-23T20:58:37.405Z,56.00
2018-05-23T21:01:06.634Z,56.30
2018-05-23T21:03:35.245Z,55.20
2018-05-23T21:06:02.908Z,55.20
2018-05-23T21:08:30.745Z,55.30
2018-05-23T21:10:58.522Z,55.10
2018-05-23T21:13:27.511Z,55.20
2018-05-23T21:15:56.087Z,55.30
2018-05-23T21:18:24.162Z,55.30
2018-05-23T21:20:52.259Z,55.40
2018-05-23T21:23:21.219Z,56.00
2018-05-23T21:25:49.399Z,56.00
2018-05-23T21:28:17.367Z,56.20
2018-05-23T21:30:45.653Z,56.00
2018-05-23T21:33:13.466Z,56.20
2018-05-23T21:35:41.484Z,55.20
2018-05-23T21:38:11.581Z,59.90
2018-05-23T21:40:39.680Z,57.60
2018-05-23T21:43:07.816Z,59.80
2018-05-23T21:45:35.808Z,61.80
2018-05-23T21:48:03.994Z,62.80
2018-05-23T21:50:32.685Z,57.30
2018-05-23T21:53:00.817Z,58.70
2018-05-23T21:55:29.529Z,61.30
2018-05-23T21:57:58.302Z,59.30
2018-05-23T22:00:26.924Z,61.80
2018-05-23T22:02:55.770Z,57.30
2018-05-23T22:05:58.507Z,60.40
2018-05-23T22:08:26.458Z,59.90
2018-05-23T22:10:55.217Z,57.20
2018-05-23T22:13:23.013Z,57.20
2018-05-23T22:15:52.464Z,61.90
2018-05-23T22:18:23.355Z,62.80
2018-05-23T22:20:52.296Z,62.90
2018-05-23T22:23:21.581Z,63.40
2018-05-23T22:25:51.061Z,64.50
2018-05-23T22:28:20.230Z,64.70
2018-05-23T22:30:49.416Z,61.40
2018-05-23T22:33:17.626Z,60.90
2018-05-23T22:35:47.437Z,64.70
2018-05-23T22:38:16.705Z,64.70
2018-05-23T22:40:45.964Z,65.40
2018-05-23T22:43:14.624Z,59.30
2018-05-23T22:45:43.718Z,64.80
2018-05-23T22:48:13.118Z,59.60
2018-05-23T22:50:41.741Z,59.60
2018-05-23T22:53:11.812Z,63.10
2018-05-23T22:55:41.157Z,63.20
2018-05-23T22:58:09.644Z,63.50
2018-05-23T23:00:38.460Z,63.30
2018-05-23T23:03:06.841Z,62.90
2018-05-23T23:05:35.787Z,65.10
2018-05-23T23:08:03.739Z,63.00
2018-05-23T23:10:32.143Z,62.70
2018-05-23T23:13:00.295Z,64.70
2018-05-23T23:15:29.539Z,65.00
2018-05-23T23:17:57.972Z,65.00
2018-05-23T23:20:27.174Z,61.90
2018-05-23T23:22:57.347Z,63.80
2018-05-23T23:25:25.463Z,63.70
2018-05-23T23:27:53.824Z,63.00
2018-05-23T23:30:21.812Z,63.20
2018-05-23T23:32:49.839Z,62.50
2018-05-23T23:35:17.653Z,65.10
2018-05-23T23:37:46.030Z,63.70
2018-05-23T23:40:14.207Z,62.70
2018-05-23T23:42:42.173Z,62.00
2018-05-23T23:45:11.167Z,63.00
2018-05-23T23:47:38.965Z,63.90
2018-05-23T23:50:06.801Z,65.90
2018-05-23T23:52:34.461Z,61.30
2018-05-23T23:55:02.068Z,62.00
2018-05-23T23:57:30.610Z,59.60
2018-05-23T23:59:58.243Z,59.60
